Time;durP1;ratioP1;P1;durP2;ratioP2;P2;SDS_P1;SDS_P2;PMS_P1;PMS_P2;Temp;Humidity;BMP_temperature;BMP_pressure;BME280_temperature;BME280_humidity;BME280_pressure;Samples;Min_cycle;Max_cycle;Signal;HPM_P1;HPM_P2
2021/01/07 00:01:08;;;;;;;0.00;0.00;;;;;;;;;;4989406;28;20033;-81
2021/01/07 00:03:38;;;;;;;0.00;0.00;;;;;;;;;;4989259;28;20036;-82
2021/01/07 00:06:05;;;;;;;0.00;0.00;;;;;;;;;;4986266;28;20037;-84
2021/01/07 00:08:33;;;;;;;0.00;0.00;;;;;;;;;;5003924;28;20107;-82
2021/01/07 00:10:58;;;;;;;0.00;0.00;;;;;;;;;;5000861;28;20565;-82
2021/01/07 00:13:23;;;;;;;0.00;0.00;;;;;;;;;;5005816;28;20061;-80
2021/01/07 00:15:49;;;;;;;0.00;0.00;;;;;;;;;;5004508;28;20030;-82
2021/01/07 00:18:14;;;;;;;0.00;0.00;;;;;;;;;;5006810;28;20029;-82
2021/01/07 00:20:40;;;;;;;0.10;0.10;;;;;;;;;;4990262;28;20042;-83
2021/01/07 00:23:07;;;;;;;0.00;0.00;;;;;;;;;;5001492;28;20017;-81
2021/01/07 00:25:33;;;;;;;0.00;0.00;;;;;;;;;;4987667;28;20041;-82
2021/01/07 00:27:58;;;;;;;0.00;0.00;;;;;;;;;;4975765;28;20025;-82
2021/01/07 00:30:26;;;;;;;0.00;0.00;;;;;;;;;;4987120;28;20040;-80
2021/01/07 00:32:52;;;;;;;0.00;0.00;;;;;;;;;;4987017;28;20025;-82
2021/01/07 00:35:17;;;;;;;0.00;0.00;;;;;;;;;;4992984;28;20506;-81
2021/01/07 00:37:42;;;;;;;0.00;0.00;;;;;;;;;;4990972;28;20025;-84
2021/01/07 00:40:08;;;;;;;0.00;0.00;;;;;;;;;;4999711;28;20513;-82
2021/01/07 00:42:34;;;;;;;0.00;0.00;;;;;;;;;;5005982;28;20397;-82
2021/01/07 00:44:59;;;;;;;0.00;0.00;;;;;;;;;;4988294;28;20058;-81
2021/01/07 00:47:25;;;;;;;0.00;0.00;;;;;;;;;;5006163;28;20032;-83
2021/01/07 00:49:50;;;;;;;0.00;0.00;;;;;;;;;;4974034;28;20053;-82
2021/01/07 00:52:16;;;;;;;0.00;0.00;;;;;;;;;;4969794;28;20118;-86
2021/01/07 00:54:41;;;;;;;0.00;0.00;;;;;;;;;;4968446;28;20038;-82
2021/01/07 00:57:07;;;;;;;0.00;0.00;;;;;;;;;;4987268;28;20036;-83
2021/01/07 00:59:32;;;;;;;0.00;0.00;;;;;;;;;;4987416;28;20386;-83
2021/01/07 01:01:58;;;;;;;0.00;0.00;;;;;;;;;;5009700;28;20025;-81
2021/01/07 01:04:24;;;;;;;0.00;0.00;;;;;;;;;;5006757;28;20050;-82
2021/01/07 01:06:50;;;;;;;0.10;0.10;;;;;;;;;;5004523;28;20033;-82
2021/01/07 01:09:16;;;;;;;0.00;0.00;;;;;;;;;;5003423;28;20414;-83
2021/01/07 01:11:42;;;;;;;0.00;0.00;;;;;;;;;;5004485;28;20109;-80
2021/01/07 01:14:08;;;;;;;0.00;0.00;;;;;;;;;;5007122;28;20033;-81
2021/01/07 01:16:33;;;;;;;0.00;0.00;;;;;;;;;;5006138;28;20609;-81
2021/01/07 01:18:59;;;;;;;0.00;0.00;;;;;;;;;;5008752;28;20021;-82
2021/01/07 01:21:24;;;;;;;0.00;0.00;;;;;;;;;;4988897;28;20600;-81
2021/01/07 01:23:50;;;;;;;0.00;0.00;;;;;;;;;;4987447;28;20549;-82
2021/01/07 01:26:18;;;;;;;0.00;0.00;;;;;;;;;;4981596;28;20590;-80
2021/01/07 01:28:47;;;;;;;0.00;0.00;;;;;;;;;;5007110;28;20061;-81
2021/01/07 01:31:12;;;;;;;0.00;0.00;;;;;;;;;;5007024;28;20518;-82
2021/01/07 01:33:38;;;;;;;0.00;0.00;;;;;;;;;;4985580;28;20072;-81
2021/01/07 01:36:04;;;;;;;0.00;0.00;;;;;;;;;;5004102;28;20033;-82
2021/01/07 01:38:29;;;;;;;0.00;0.00;;;;;;;;;;5004389;28;20022;-83
2021/01/07 01:41:02;;;;;;;0.00;0.00;;;;;;;;;;5002550;28;20060;-81
2021/01/07 01:43:27;;;;;;;0.00;0.00;;;;;;;;;;5003258;28;20028;-82
2021/01/07 01:45:53;;;;;;;0.00;0.00;;;;;;;;;;4987112;28;20402;-80
2021/01/07 01:48:18;;;;;;;0.00;0.00;;;;;;;;;;5011589;28;20029;-81
2021/01/07 01:50:44;;;;;;;0.00;0.00;;;;;;;;;;5008188;28;20036;-82
2021/01/07 01:53:09;;;;;;;0.00;0.00;;;;;;;;;;5006789;28;20207;-81
2021/01/07 01:55:35;;;;;;;0.00;0.00;;;;;;;;;;5005913;28;20103;-81
2021/01/07 01:58:00;;;;;;;0.00;0.00;;;;;;;;;;5006340;28;20032;-81
2021/01/07 02:00:26;;;;;;;0.00;0.00;;;;;;;;;;5014031;28;20036;-81
2021/01/07 02:02:52;;;;;;;0.00;0.00;;;;;;;;;;4993954;28;20126;-84
2021/01/07 02:05:18;;;;;;;0.00;0.00;;;;;;;;;;5015801;28;20701;-82
2021/01/07 02:07:46;;;;;;;0.00;0.00;;;;;;;;;;5006368;28;20026;-82
2021/01/07 02:10:11;;;;;;;0.00;0.00;;;;;;;;;;5008646;28;20030;-84
2021/01/07 02:12:42;;;;;;;0.00;0.00;;;;;;;;;;5006798;28;20060;-82
2021/01/07 02:15:08;;;;;;;0.05;0.05;;;;;;;;;;5008438;28;20116;-84
2021/01/07 02:17:34;;;;;;;0.00;0.00;;;;;;;;;;4990941;28;20045;-86
2021/01/07 02:19:59;;;;;;;0.00;0.00;;;;;;;;;;5005646;28;20037;-85
2021/01/07 02:22:25;;;;;;;0.00;0.00;;;;;;;;;;5007074;28;20030;-81
2021/01/07 02:24:51;;;;;;;0.00;0.00;;;;;;;;;;5005503;28;20447;-81
2021/01/07 02:27:17;;;;;;;0.00;0.00;;;;;;;;;;5006934;28;20672;-81
2021/01/07 02:29:42;;;;;;;0.00;0.00;;;;;;;;;;5006535;28;20013;-81
2021/01/07 02:32:08;;;;;;;0.00;0.00;;;;;;;;;;4983278;28;20037;-82
2021/01/07 02:34:34;;;;;;;0.00;0.00;;;;;;;;;;4972917;28;20239;-81
2021/01/07 02:36:59;;;;;;;0.00;0.00;;;;;;;;;;5004238;28;20748;-82
2021/01/07 02:39:25;;;;;;;0.00;0.00;;;;;;;;;;4973007;28;20203;-79
2021/01/07 02:41:51;;;;;;;0.00;0.00;;;;;;;;;;5007095;28;20148;-82
2021/01/07 02:44:17;;;;;;;0.00;0.00;;;;;;;;;;4990605;28;20251;-82
2021/01/07 02:46:42;;;;;;;0.00;0.00;;;;;;;;;;5012023;28;20021;-81
2021/01/07 02:49:08;;;;;;;0.00;0.00;;;;;;;;;;4989380;28;20414;-82
2021/01/07 02:51:33;;;;;;;0.00;0.00;;;;;;;;;;5004404;28;20526;-80
2021/01/07 02:54:00;;;;;;;0.00;0.00;;;;;;;;;;5006516;28;20018;-81
2021/01/07 02:56:25;;;;;;;0.00;0.00;;;;;;;;;;4995413;28;20487;-81
2021/01/07 02:58:51;;;;;;;0.00;0.00;;;;;;;;;;4990289;28;20041;-85
2021/01/07 03:01:16;;;;;;;0.00;0.00;;;;;;;;;;4988922;28;20366;-81
2021/01/07 03:03:41;;;;;;;0.00;0.00;;;;;;;;;;4973105;28;20037;-80
2021/01/07 03:06:07;;;;;;;0.00;0.00;;;;;;;;;;4989731;28;20076;-80
2021/01/07 03:08:32;;;;;;;0.00;0.00;;;;;;;;;;4988294;28;20029;-83
2021/01/07 03:10:58;;;;;;;0.00;0.00;;;;;;;;;;4990450;28;20050;-82
2021/01/07 03:13:23;;;;;;;0.00;0.00;;;;;;;;;;4980794;28;20050;-84
2021/01/07 03:15:49;;;;;;;0.00;0.00;;;;;;;;;;5007718;28;21629;-81
2021/01/07 03:18:15;;;;;;;0.00;0.00;;;;;;;;;;5007636;28;20110;-81
2021/01/07 03:20:40;;;;;;;0.00;0.00;;;;;;;;;;4989512;28;20144;-80
2021/01/07 03:23:06;;;;;;;0.00;0.00;;;;;;;;;;4990183;28;20037;-81
2021/01/07 03:25:32;;;;;;;0.00;0.00;;;;;;;;;;4975920;28;20041;-81
2021/01/07 03:27:57;;;;;;;0.00;0.00;;;;;;;;;;4989452;28;20029;-82
2021/01/07 03:30:23;;;;;;;0.00;0.00;;;;;;;;;;5004399;28;20029;-81
2021/01/07 03:32:48;;;;;;;0.00;0.00;;;;;;;;;;5006901;28;20033;-80
2021/01/07 03:35:14;;;;;;;0.00;0.00;;;;;;;;;;4973126;28;20035;-82
2021/01/07 03:37:40;;;;;;;0.00;0.00;;;;;;;;;;4987916;28;20386;-80
2021/01/07 03:42:34;;;;;;;0.00;0.00;;;;;;;;;;4954448;28;20054;-70
2021/01/07 03:45:00;;;;;;;0.55;0.52;;;;;;;;;;4979656;28;20034;-70
2021/01/07 03:47:26;;;;;;;0.00;0.00;;;;;;;;;;4981538;28;20671;-70
2021/01/07 03:49:51;;;;;;;0.00;0.00;;;;;;;;;;4969363;28;20072;-69
2021/01/07 03:52:17;;;;;;;0.00;0.00;;;;;;;;;;4968491;28;20026;-70
2021/01/07 03:54:42;;;;;;;0.00;0.00;;;;;;;;;;4967565;28;20037;-70
2021/01/07 03:57:08;;;;;;;1.23;1.13;;;;;;;;;;4984377;28;20034;-70
2021/01/07 03:59:34;;;;;;;0.00;0.00;;;;;;;;;;4966165;28;20083;-70
2021/01/07 04:02:00;;;;;;;0.00;0.00;;;;;;;;;;4962907;28;21386;-70
2021/01/07 04:04:26;;;;;;;0.20;0.20;;;;;;;;;;4976722;28;20041;-71
2021/01/07 04:06:51;;;;;;;0.00;0.00;;;;;;;;;;4978909;28;20762;-72
2021/01/07 04:09:25;;;;;;;0.00;0.00;;;;;;;;;;4979510;28;20034;-69
2021/01/07 04:11:51;;;;;;;0.00;0.00;;;;;;;;;;4979946;28;20045;-69
2021/01/07 04:14:23;;;;;;;0.00;0.00;;;;;;;;;;4964257;28;20045;-70
2021/01/07 04:16:52;;;;;;;0.00;0.00;;;;;;;;;;4979443;28;20041;-70
2021/01/07 04:19:17;;;;;;;0.00;0.00;;;;;;;;;;4979625;28;20491;-69
2021/01/07 04:21:50;;;;;;;0.00;0.00;;;;;;;;;;4979539;28;20112;-70
2021/01/07 04:24:16;;;;;;;0.00;0.00;;;;;;;;;;4977648;28;20171;-69
2021/01/07 04:26:43;;;;;;;0.00;0.00;;;;;;;;;;4979055;28;20042;-70
2021/01/07 04:29:10;;;;;;;0.00;0.00;;;;;;;;;;4980260;28;20124;-68
2021/01/07 04:31:35;;;;;;;0.00;0.00;;;;;;;;;;4978569;28;20048;-71
2021/01/07 04:34:01;;;;;;;0.00;0.00;;;;;;;;;;4958612;28;20034;-69
2021/01/07 04:36:27;;;;;;;0.00;0.00;;;;;;;;;;4974729;28;21173;-69
2021/01/07 04:38:58;;;;;;;0.00;0.00;;;;;;;;;;4978955;28;20105;-69
2021/01/07 04:41:23;;;;;;;0.00;0.00;;;;;;;;;;4979036;28;20046;-69
2021/01/07 04:43:58;;;;;;;0.00;0.00;;;;;;;;;;4979680;28;20041;-70
2021/01/07 04:46:24;;;;;;;0.00;0.00;;;;;;;;;;4977814;28;20033;-69
2021/01/07 04:48:50;;;;;;;0.00;0.00;;;;;;;;;;4958235;28;20029;-69
2021/01/07 04:51:19;;;;;;;0.00;0.00;;;;;;;;;;4976583;28;20133;-68
2021/01/07 04:53:47;;;;;;;0.00;0.00;;;;;;;;;;4962466;28;20059;-68
2021/01/07 04:56:15;;;;;;;0.00;0.00;;;;;;;;;;4978118;28;20034;-68
2021/01/07 04:58:41;;;;;;;0.00;0.00;;;;;;;;;;4959384;28;20042;-68
2021/01/07 05:01:06;;;;;;;0.00;0.00;;;;;;;;;;4978255;28;20551;-69
2021/01/07 05:03:32;;;;;;;0.00;0.00;;;;;;;;;;4980119;28;20568;-69
2021/01/07 05:06:00;;;;;;;0.00;0.00;;;;;;;;;;4963395;28;20025;-68
2021/01/07 05:08:27;;;;;;;0.00;0.00;;;;;;;;;;4977996;28;20030;-71
2021/01/07 05:10:55;;;;;;;0.00;0.00;;;;;;;;;;4965138;28;20125;-69
2021/01/07 05:13:25;;;;;;;0.00;0.00;;;;;;;;;;4977266;28;20095;-70
2021/01/07 05:15:54;;;;;;;0.00;0.00;;;;;;;;;;4978524;28;20097;-69
2021/01/07 05:18:19;;;;;;;0.00;0.00;;;;;;;;;;4958603;28;20014;-69
2021/01/07 05:20:45;;;;;;;0.00;0.00;;;;;;;;;;4961167;28;20065;-68
2021/01/07 05:23:11;;;;;;;0.00;0.00;;;;;;;;;;4979149;28;20029;-69
2021/01/07 05:25:43;;;;;;;0.00;0.00;;;;;;;;;;4976797;28;20050;-71
2021/01/07 05:28:12;;;;;;;0.00;0.00;;;;;;;;;;4962418;28;20036;-69
2021/01/07 05:30:37;;;;;;;0.00;0.00;;;;;;;;;;4974986;28;20741;-69
2021/01/07 05:33:06;;;;;;;0.00;0.00;;;;;;;;;;4959853;28;20038;-70
2021/01/07 05:35:32;;;;;;;0.00;0.00;;;;;;;;;;4979925;28;20576;-70
2021/01/07 05:38:02;;;;;;;0.00;0.00;;;;;;;;;;4980476;28;20113;-69
2021/01/07 05:40:31;;;;;;;0.00;0.00;;;;;;;;;;4982396;28;20140;-70
2021/01/07 05:43:01;;;;;;;0.00;0.00;;;;;;;;;;4967660;28;20121;-69
2021/01/07 05:45:35;;;;;;;0.00;0.00;;;;;;;;;;4985368;28;20264;-69
2021/01/07 05:48:06;;;;;;;0.00;0.00;;;;;;;;;;4982689;28;20459;-69
2021/01/07 05:50:38;;;;;;;0.00;0.00;;;;;;;;;;4969303;28;20130;-69
2021/01/07 05:53:07;;;;;;;0.00;0.00;;;;;;;;;;4982662;28;20168;-70
2021/01/07 05:55:32;;;;;;;0.00;0.00;;;;;;;;;;4986246;28;20025;-70
2021/01/07 05:57:59;;;;;;;0.00;0.00;;;;;;;;;;4986560;28;20409;-69
2021/01/07 06:00:28;;;;;;;0.00;0.00;;;;;;;;;;4984345;28;20351;-69
2021/01/07 06:02:56;;;;;;;0.00;0.00;;;;;;;;;;4983248;28;20034;-68
2021/01/07 06:05:22;;;;;;;0.00;0.00;;;;;;;;;;4985308;28;20045;-70
2021/01/07 06:07:50;;;;;;;0.00;0.00;;;;;;;;;;4968486;28;20045;-69
2021/01/07 06:10:16;;;;;;;0.00;0.00;;;;;;;;;;4956033;28;20038;-69
2021/01/07 06:12:41;;;;;;;0.00;0.00;;;;;;;;;;4983492;28;20069;-69
2021/01/07 06:15:09;;;;;;;2.45;1.17;;;;;;;;;;4982159;28;20125;-69
2021/01/07 06:17:38;;;;;;;0.00;0.00;;;;;;;;;;4983177;28;20551;-68
2021/01/07 06:20:20;;;;;;;0.00;0.00;;;;;;;;;;4982386;28;20553;-69
2021/01/07 06:22:49;;;;;;;0.00;0.00;;;;;;;;;;4966074;28;20030;-68
2021/01/07 06:25:15;;;;;;;0.00;0.00;;;;;;;;;;4981026;28;20552;-69
2021/01/07 06:27:48;;;;;;;0.00;0.00;;;;;;;;;;4983297;28;20033;-69
2021/01/07 06:30:18;;;;;;;0.00;0.00;;;;;;;;;;4983247;28;20038;-69
2021/01/07 06:32:59;;;;;;;0.00;0.00;;;;;;;;;;4979779;28;20040;-69
2021/01/07 06:35:29;;;;;;;0.00;0.00;;;;;;;;;;4962323;28;20032;-69
2021/01/07 06:37:54;;;;;;;0.00;0.00;;;;;;;;;;4977828;28;20037;-69
2021/01/07 06:40:25;;;;;;;0.00;0.00;;;;;;;;;;4963733;28;20148;-69
2021/01/07 06:42:53;;;;;;;0.00;0.00;;;;;;;;;;4979373;28;20034;-69
2021/01/07 06:45:25;;;;;;;0.00;0.00;;;;;;;;;;4978508;28;20860;-69
2021/01/07 06:48:01;;;;;;;0.00;0.00;;;;;;;;;;4984212;28;20041;-70
2021/01/07 06:50:36;;;;;;;0.00;0.00;;;;;;;;;;4984830;28;20044;-68
2021/01/07 06:53:03;;;;;;;0.00;0.00;;;;;;;;;;4982056;28;20033;-71
2021/01/07 06:55:33;;;;;;;0.28;0.28;;;;;;;;;;4965935;28;20038;-69
2021/01/07 06:57:59;;;;;;;0.10;0.10;;;;;;;;;;4979238;28;20042;-67
2021/01/07 07:00:27;;;;;;;0.00;0.00;;;;;;;;;;4981934;28;20029;-69
2021/01/07 07:09:24;;;;;;;0.00;0.00;;;;;;;;;;4975176;28;20115;-68
2021/01/07 07:11:53;;;;;;;0.00;0.00;;;;;;;;;;4962606;28;20236;-71
2021/01/07 07:14:24;;;;;;;0.00;0.00;;;;;;;;;;4979562;28;20238;-70
2021/01/07 07:16:56;;;;;;;0.00;0.00;;;;;;;;;;4978143;28;20150;-69
2021/01/07 07:19:24;;;;;;;0.00;0.00;;;;;;;;;;4979169;28;20091;-70
2021/01/07 07:22:00;;;;;;;0.00;0.00;;;;;;;;;;4979654;28;20600;-68
2021/01/07 07:24:39;;;;;;;0.00;0.00;;;;;;;;;;4977154;28;20263;-70
2021/01/07 07:27:08;;;;;;;0.80;0.80;;;;;;;;;;4975045;28;20437;-69
2021/01/07 07:29:41;;;;;;;0.00;0.00;;;;;;;;;;4976908;28;20267;-70
2021/01/07 07:32:19;;;;;;;0.00;0.00;;;;;;;;;;4977656;28;20053;-69
2021/01/07 07:34:51;;;;;;;0.00;0.00;;;;;;;;;;4958197;28;20043;-68
2021/01/07 07:37:19;;;;;;;0.00;0.00;;;;;;;;;;4981274;28;20190;-69
2021/01/07 07:39:46;;;;;;;0.00;0.00;;;;;;;;;;4973879;28;20025;-69
2021/01/07 07:42:13;;;;;;;0.00;0.00;;;;;;;;;;4978621;28;21184;-68
2021/01/07 07:44:39;;;;;;;0.00;0.00;;;;;;;;;;4982459;28;20200;-70
2021/01/07 07:47:07;;;;;;;0.03;0.03;;;;;;;;;;4983135;28;20046;-69
2021/01/07 07:49:33;;;;;;;0.00;0.00;;;;;;;;;;4980004;28;20677;-68
2021/01/07 07:52:03;;;;;;;0.00;0.00;;;;;;;;;;4950676;28;20139;-69
2021/01/07 07:54:47;;;;;;;0.00;0.00;;;;;;;;;;4944875;28;20046;-69
2021/01/07 07:57:17;;;;;;;0.00;0.00;;;;;;;;;;4975202;28;20734;-70
2021/01/07 07:59:42;;;;;;;0.00;0.00;;;;;;;;;;4960759;28;20038;-70
2021/01/07 08:02:18;;;;;;;0.10;0.10;;;;;;;;;;4981179;28;20120;-68
2021/01/07 08:04:44;;;;;;;0.00;0.00;;;;;;;;;;4978894;28;20041;-69
2021/01/07 08:07:13;;;;;;;0.00;0.00;;;;;;;;;;4981024;28;20072;-69
2021/01/07 08:09:45;;;;;;;0.00;0.00;;;;;;;;;;4964868;28;20466;-69
2021/01/07 08:12:16;;;;;;;0.00;0.00;;;;;;;;;;4978721;28;20033;-69
2021/01/07 08:14:42;;;;;;;0.00;0.00;;;;;;;;;;4978581;28;20123;-69
2021/01/07 08:17:25;;;;;;;0.00;0.00;;;;;;;;;;4981442;28;20092;-69
2021/01/07 08:19:55;;;;;;;0.00;0.00;;;;;;;;;;4980425;28;20722;-69
2021/01/07 08:22:28;;;;;;;0.00;0.00;;;;;;;;;;4967858;28;20093;-69
2021/01/07 08:24:57;;;;;;;0.00;0.00;;;;;;;;;;4963228;28;20738;-69
2021/01/07 08:27:28;;;;;;;0.00;0.00;;;;;;;;;;4981076;28;20029;-70
2021/01/07 08:29:56;;;;;;;0.00;0.00;;;;;;;;;;4964137;28;20569;-70
2021/01/07 08:32:27;;;;;;;0.00;0.00;;;;;;;;;;4978586;28;21326;-69
2021/01/07 08:34:53;;;;;;;0.00;0.00;;;;;;;;;;4962388;28;20041;-68
2021/01/07 08:37:31;;;;;;;0.00;0.00;;;;;;;;;;4964066;28;20040;-70
2021/01/07 08:40:02;;;;;;;0.00;0.00;;;;;;;;;;4977770;28;20052;-71
2021/01/07 08:42:37;;;;;;;0.00;0.00;;;;;;;;;;4974752;28;20557;-71
2021/01/07 08:45:08;;;;;;;0.00;0.00;;;;;;;;;;4980915;28;20065;-69
2021/01/07 08:47:36;;;;;;;0.00;0.00;;;;;;;;;;4979869;28;20037;-70
2021/01/07 08:50:08;;;;;;;0.00;0.00;;;;;;;;;;4978355;28;20037;-69
2021/01/07 08:52:58;;;;;;;0.00;0.00;;;;;;;;;;4981155;28;20068;-68
2021/01/07 08:55:42;;;;;;;0.00;0.00;;;;;;;;;;4973157;28;20394;-69
2021/01/07 08:58:10;;;;;;;0.00;0.00;;;;;;;;;;4961929;28;20116;-69
2021/01/07 09:00:38;;;;;;;0.10;0.10;;;;;;;;;;4979136;28;20117;-70
2021/01/07 09:03:05;;;;;;;0.00;0.00;;;;;;;;;;4964546;28;20049;-68
2021/01/07 09:05:35;;;;;;;0.00;0.00;;;;;;;;;;4966324;28;20055;-68
2021/01/07 09:08:15;;;;;;;0.00;0.00;;;;;;;;;;4962979;28;20745;-69
2021/01/07 09:10:41;;;;;;;0.00;0.00;;;;;;;;;;4979257;28;20394;-68
2021/01/07 09:13:16;;;;;;;0.00;0.00;;;;;;;;;;4979254;28;20540;-68
2021/01/07 09:15:43;;;;;;;0.00;0.00;;;;;;;;;;4977579;28;20370;-70
2021/01/07 09:18:12;;;;;;;0.00;0.00;;;;;;;;;;4957238;28;20351;-69
2021/01/07 09:20:41;;;;;;;0.00;0.00;;;;;;;;;;4975071;28;20034;-69
2021/01/07 09:23:08;;;;;;;0.00;0.00;;;;;;;;;;4978034;28;20601;-69
2021/01/07 09:25:34;;;;;;;0.00;0.00;;;;;;;;;;4979150;28;20139;-69
2021/01/07 09:28:02;;;;;;;0.00;0.00;;;;;;;;;;4979871;28;20300;-69
2021/01/07 09:30:32;;;;;;;0.00;0.00;;;;;;;;;;4975638;28;20033;-69
2021/01/07 09:33:01;;;;;;;0.00;0.00;;;;;;;;;;4953085;28;20038;-68
2021/01/07 09:35:29;;;;;;;0.00;0.00;;;;;;;;;;4980139;28;20044;-69
2021/01/07 09:37:56;;;;;;;0.00;0.00;;;;;;;;;;4979442;28;20054;-69
2021/01/07 09:40:22;;;;;;;0.00;0.00;;;;;;;;;;4980175;28;20030;-69
2021/01/07 09:42:49;;;;;;;0.00;0.00;;;;;;;;;;4974100;28;20042;-69
2021/01/07 09:45:22;;;;;;;0.00;0.00;;;;;;;;;;4978301;28;20457;-70
2021/01/07 09:47:47;;;;;;;0.00;0.00;;;;;;;;;;4964007;28;20034;-70
2021/01/07 09:50:19;;;;;;;0.00;0.00;;;;;;;;;;4949628;28;20592;-68
2021/01/07 09:52:51;;;;;;;0.00;0.00;;;;;;;;;;4980810;28;20103;-70
2021/01/07 09:55:16;;;;;;;0.00;0.00;;;;;;;;;;4962441;28;20128;-70
2021/01/07 09:57:51;;;;;;;0.00;0.00;;;;;;;;;;4966180;28;20034;-69
2021/01/07 10:00:19;;;;;;;0.00;0.00;;;;;;;;;;4979830;28;20764;-70
2021/01/07 10:02:46;;;;;;;0.00;0.00;;;;;;;;;;4956047;28;20044;-70
2021/01/07 10:05:14;;;;;;;0.00;0.00;;;;;;;;;;4961875;28;20050;-70
2021/01/07 10:07:40;;;;;;;0.00;0.00;;;;;;;;;;4959467;28;20191;-69
2021/01/07 10:10:08;;;;;;;0.00;0.00;;;;;;;;;;4961014;28;20033;-68
2021/01/07 10:12:33;;;;;;;0.00;0.00;;;;;;;;;;4978068;28;21725;-69
2021/01/07 10:14:59;;;;;;;0.00;0.00;;;;;;;;;;4961745;28;20148;-70
2021/01/07 10:17:25;;;;;;;0.00;0.00;;;;;;;;;;4978709;28;20031;-71
2021/01/07 10:19:51;;;;;;;0.00;0.00;;;;;;;;;;4978083;28;20365;-70
2021/01/07 10:22:23;;;;;;;0.00;0.00;;;;;;;;;;4981491;28;20125;-70
2021/01/07 10:24:48;;;;;;;0.00;0.00;;;;;;;;;;4981123;28;20038;-70
2021/01/07 10:27:17;;;;;;;0.00;0.00;;;;;;;;;;4980830;28;20512;-69
2021/01/07 10:29:48;;;;;;;0.00;0.00;;;;;;;;;;4982173;28;20094;-69
2021/01/07 10:32:18;;;;;;;0.00;0.00;;;;;;;;;;4965155;28;20026;-69
2021/01/07 10:34:51;;;;;;;0.00;0.00;;;;;;;;;;4982061;28;20036;-70
2021/01/07 10:37:20;;;;;;;0.00;0.00;;;;;;;;;;4963669;28;20053;-70
2021/01/07 10:39:47;;;;;;;0.00;0.00;;;;;;;;;;4978986;28;20033;-69
2021/01/07 10:42:13;;;;;;;0.00;0.00;;;;;;;;;;4980940;28;20058;-69
2021/01/07 10:44:40;;;;;;;0.00;0.00;;;;;;;;;;4981129;28;20933;-68
2021/01/07 10:47:07;;;;;;;0.00;0.00;;;;;;;;;;4981946;28;20065;-69
2021/01/07 10:49:33;;;;;;;0.00;0.00;;;;;;;;;;4975211;28;20500;-68
2021/01/07 10:51:59;;;;;;;0.45;0.45;;;;;;;;;;4957998;28;20403;-69
2021/01/07 10:54:24;;;;;;;0.00;0.00;;;;;;;;;;4980285;28;20069;-69
2021/01/07 10:57:09;;;;;;;0.00;0.00;;;;;;;;;;4984585;28;20117;-70
2021/01/07 10:59:38;;;;;;;0.00;0.00;;;;;;;;;;4981330;28;20461;-69
2021/01/07 11:02:08;;;;;;;0.00;0.00;;;;;;;;;;4982952;28;20041;-69
2021/01/07 11:04:42;;;;;;;0.00;0.00;;;;;;;;;;4962804;28;20042;-69
2021/01/07 11:07:14;;;;;;;0.00;0.00;;;;;;;;;;4981950;28;20044;-69
2021/01/07 11:09:45;;;;;;;0.00;0.00;;;;;;;;;;4949860;28;20266;-68
2021/01/07 11:12:22;;;;;;;0.10;0.10;;;;;;;;;;4976896;28;20183;-69
2021/01/07 11:14:53;;;;;;;0.00;0.00;;;;;;;;;;4969085;28;20579;-69
2021/01/07 11:17:24;;;;;;;0.00;0.00;;;;;;;;;;4969733;28;20451;-69
2021/01/07 11:19:50;;;;;;;0.00;0.00;;;;;;;;;;4968867;28;20080;-69
2021/01/07 11:22:20;;;;;;;0.00;0.00;;;;;;;;;;4982460;28;20033;-68
2021/01/07 11:24:51;;;;;;;0.00;0.00;;;;;;;;;;4980230;28;20060;-68
2021/01/07 11:27:21;;;;;;;0.00;0.00;;;;;;;;;;4982241;28;20101;-68
2021/01/07 11:29:46;;;;;;;0.00;0.00;;;;;;;;;;4981738;28;20037;-68
2021/01/07 11:32:14;;;;;;;0.00;0.00;;;;;;;;;;4980357;28;20130;-69
2021/01/07 11:34:40;;;;;;;0.00;0.00;;;;;;;;;;4978586;28;20461;-69
2021/01/07 11:38:06;;;;;;;0.00;0.00;;;;;;;;;;4965081;28;20092;-68
2021/01/07 11:40:30;;;;;;;0.20;0.20;;;;;;;;;;4898187;29;20035;-68
2021/01/07 11:42:59;;;;;;;0.00;0.00;;;;;;;;;;4902300;29;20613;-69
2021/01/07 11:45:30;;;;;;;0.00;0.00;;;;;;;;;;4944518;28;20042;-69
2021/01/07 11:48:05;;;;;;;0.00;0.00;;;;;;;;;;4968442;28;20046;-68
2021/01/07 11:50:36;;;;;;;0.00;0.00;;;;;;;;;;4963061;28;20044;-69
2021/01/07 11:53:05;;;;;;;0.00;0.00;;;;;;;;;;4971194;28;20125;-69
2021/01/07 11:55:36;;;;;;;0.00;0.00;;;;;;;;;;4983032;28;20125;-69
2021/01/07 11:58:02;;;;;;;0.00;0.00;;;;;;;;;;4967535;28;20139;-68
2021/01/07 12:00:30;;;;;;;0.00;0.00;;;;;;;;;;4982138;28;20026;-69
2021/01/07 12:03:00;;;;;;;0.00;0.00;;;;;;;;;;4980820;28;20026;-69
2021/01/07 12:05:26;;;;;;;0.00;0.00;;;;;;;;;;4969312;28;20033;-69
2021/01/07 12:07:52;;;;;;;0.00;0.00;;;;;;;;;;4984183;28;20593;-69
2021/01/07 12:10:21;;;;;;;0.00;0.00;;;;;;;;;;4980181;28;20041;-68
2021/01/07 12:12:52;;;;;;;0.00;0.00;;;;;;;;;;4968913;28;20037;-68
2021/01/07 12:15:22;;;;;;;0.00;0.00;;;;;;;;;;4969619;28;20181;-68
2021/01/07 12:17:52;;;;;;;0.00;0.00;;;;;;;;;;4979783;28;20036;-68
2021/01/07 12:20:20;;;;;;;0.00;0.00;;;;;;;;;;4980906;28;20026;-68
2021/01/07 12:22:49;;;;;;;0.00;0.00;;;;;;;;;;4979041;28;20022;-69
2021/01/07 12:25:16;;;;;;;0.00;0.00;;;;;;;;;;4980197;28;20037;-70
2021/01/07 12:27:46;;;;;;;0.00;0.00;;;;;;;;;;4979706;28;20108;-69
2021/01/07 12:30:15;;;;;;;0.00;0.00;;;;;;;;;;4975319;28;20717;-68
2021/01/07 12:32:41;;;;;;;0.00;0.00;;;;;;;;;;4967066;28;20134;-70
2021/01/07 12:35:11;;;;;;;0.00;0.00;;;;;;;;;;4980717;28;20088;-69
2021/01/07 12:37:58;;;;;;;0.00;0.00;;;;;;;;;;4982620;28;20032;-70
2021/01/07 12:40:24;;;;;;;0.00;0.00;;;;;;;;;;4978471;28;20481;-69
2021/01/07 12:43:00;;;;;;;0.00;0.00;;;;;;;;;;4980816;28;20052;-68
2021/01/07 12:45:26;;;;;;;0.00;0.00;;;;;;;;;;4977366;28;20516;-69
2021/01/07 12:47:55;;;;;;;0.00;0.00;;;;;;;;;;4979386;28;20034;-69
2021/01/07 12:50:21;;;;;;;0.00;0.00;;;;;;;;;;4950789;28;20134;-68
2021/01/07 12:52:47;;;;;;;0.00;0.00;;;;;;;;;;4976837;28;20121;-69
2021/01/07 12:55:14;;;;;;;0.00;0.00;;;;;;;;;;4981388;28;20060;-68
2021/01/07 12:57:55;;;;;;;0.00;0.00;;;;;;;;;;4982370;28;20034;-69
2021/01/07 13:00:27;;;;;;;0.00;0.00;;;;;;;;;;4967834;28;20109;-69
2021/01/07 13:03:21;;;;;;;0.00;0.00;;;;;;;;;;4981432;28;20375;-70
2021/01/07 13:05:58;;;;;;;0.00;0.00;;;;;;;;;;4966901;28;20042;-67
2021/01/07 13:08:53;;;;;;;0.00;0.00;;;;;;;;;;4978544;28;20091;-67
2021/01/07 13:11:21;;;;;;;0.00;0.00;;;;;;;;;;4965954;28;20042;-68
2021/01/07 13:13:49;;;;;;;0.00;0.00;;;;;;;;;;4960448;28;20104;-68
2021/01/07 13:16:15;;;;;;;0.00;0.00;;;;;;;;;;4980583;28;20597;-69
2021/01/07 13:18:41;;;;;;;0.00;0.00;;;;;;;;;;4979594;28;20378;-69
2021/01/07 13:21:11;;;;;;;0.00;0.00;;;;;;;;;;4965570;28;21057;-70
2021/01/07 13:23:37;;;;;;;0.00;0.00;;;;;;;;;;4980716;28;20026;-69
2021/01/07 13:26:05;;;;;;;0.00;0.00;;;;;;;;;;4961335;28;20034;-68
2021/01/07 13:28:40;;;;;;;0.00;0.00;;;;;;;;;;4979881;28;20485;-69
2021/01/07 13:31:06;;;;;;;0.00;0.00;;;;;;;;;;4980508;28;20469;-69
2021/01/07 13:33:31;;;;;;;0.00;0.00;;;;;;;;;;4963109;28;20044;-70
2021/01/07 13:36:00;;;;;;;0.00;0.00;;;;;;;;;;4978561;28;20406;-67
2021/01/07 13:38:26;;;;;;;0.00;0.00;;;;;;;;;;4978895;28;20135;-70
2021/01/07 13:40:52;;;;;;;0.00;0.00;;;;;;;;;;4976652;28;20111;-69
2021/01/07 13:43:20;;;;;;;0.00;0.00;;;;;;;;;;4979813;28;20212;-70
2021/01/07 13:45:50;;;;;;;0.00;0.00;;;;;;;;;;4981041;28;20034;-69
2021/01/07 13:48:16;;;;;;;0.00;0.00;;;;;;;;;;4954935;28;20034;-71
2021/01/07 13:50:47;;;;;;;0.00;0.00;;;;;;;;;;4979015;28;20103;-70
2021/01/07 13:53:18;;;;;;;0.00;0.00;;;;;;;;;;4980470;28;20053;-67
2021/01/07 13:55:50;;;;;;;0.00;0.00;;;;;;;;;;4961507;28;20373;-70
2021/01/07 13:58:16;;;;;;;0.00;0.00;;;;;;;;;;4968305;28;20081;-71
2021/01/07 14:00:46;;;;;;;0.00;0.00;;;;;;;;;;4966874;28;20575;-71
2021/01/07 14:03:12;;;;;;;0.00;0.00;;;;;;;;;;4980147;28;20757;-68
2021/01/07 14:05:40;;;;;;;0.00;0.00;;;;;;;;;;4979235;28;21003;-69
2021/01/07 14:08:09;;;;;;;0.00;0.00;;;;;;;;;;4982872;28;20924;-70
2021/01/07 14:10:39;;;;;;;0.00;0.00;;;;;;;;;;4982130;28;20133;-69
2021/01/07 14:13:09;;;;;;;0.00;0.00;;;;;;;;;;4968290;28;20041;-68
2021/01/07 14:15:35;;;;;;;0.00;0.00;;;;;;;;;;4984439;28;20031;-69
2021/01/07 14:18:07;;;;;;;0.00;0.00;;;;;;;;;;4984600;28;20072;-70
2021/01/07 14:20:33;;;;;;;0.00;0.00;;;;;;;;;;4984497;28;20689;-69
2021/01/07 14:22:58;;;;;;;0.00;0.00;;;;;;;;;;4985559;28;20038;-69
2021/01/07 14:25:27;;;;;;;0.00;0.00;;;;;;;;;;4985805;28;20049;-68
2021/01/07 14:28:03;;;;;;;0.00;0.00;;;;;;;;;;4968655;28;20136;-68
2021/01/07 14:30:32;;;;;;;0.00;0.00;;;;;;;;;;4986911;28;20585;-69
2021/01/07 14:32:59;;;;;;;0.00;0.00;;;;;;;;;;4984328;28;20615;-69
2021/01/07 14:35:27;;;;;;;0.00;0.00;;;;;;;;;;4969291;28;20044;-69
2021/01/07 14:37:56;;;;;;;0.00;0.00;;;;;;;;;;4967749;28;20226;-69
2021/01/07 14:40:25;;;;;;;0.00;0.00;;;;;;;;;;4962917;28;20084;-69
2021/01/07 14:42:51;;;;;;;0.00;0.00;;;;;;;;;;4981551;28;20110;-69
2021/01/07 14:45:18;;;;;;;0.00;0.00;;;;;;;;;;4982638;28;20548;-69
2021/01/07 14:47:48;;;;;;;0.00;0.00;;;;;;;;;;4981947;28;20112;-69
2021/01/07 14:50:17;;;;;;;0.00;0.00;;;;;;;;;;4967410;28;20096;-69
2021/01/07 14:52:44;;;;;;;0.00;0.00;;;;;;;;;;4980799;28;20564;-70
2021/01/07 14:55:09;;;;;;;0.00;0.00;;;;;;;;;;4981599;28;20104;-69
2021/01/07 14:57:44;;;;;;;0.00;0.00;;;;;;;;;;4982084;28;20069;-69
2021/01/07 15:00:14;;;;;;;0.00;0.00;;;;;;;;;;4966860;28;20038;-68